sensor_id;sensor_type;location;lat;lon;timestamp;P1;durP1;ratioP1;P2;durP2;ratioP2
50002;SDS011;35889;51.442;6.408;2022-07-05T00:00:17;0.60;;;0.60;;
50002;SDS011;35889;51.442;6.408;2022-07-05T00:02:43;0.50;;;0.50;;
50002;SDS011;35889;51.442;6.408;2022-07-05T00:05:08;0.60;;;0.60;;
50002;SDS011;35889;51.442;6.408;2022-07-05T00:07:34;0.60;;;0.60;;
50002;SDS011;35889;51.442;6.408;2022-07-05T00:09:59;0.60;;;0.60;;
50002;SDS011;35889;51.442;6.408;2022-07-05T00:12:28;0.60;;;0.60;;
50002;SDS011;35889;51.442;6.408;2022-07-05T00:14:57;0.60;;;0.60;;
50002;SDS011;35889;51.442;6.408;2022-07-05T00:17:22;0.60;;;0.60;;
50002;SDS011;35889;51.442;6.408;2022-07-05T00:19:48;0.60;;;0.60;;
50002;SDS011;35889;51.442;6.408;2022-07-05T00:22:13;0.60;;;0.60;;
50002;SDS011;35889;51.442;6.408;2022-07-05T00:24:39;0.60;;;0.60;;
50002;SDS011;35889;51.442;6.408;2022-07-05T00:27:04;0.60;;;0.60;;
50002;SDS011;35889;51.442;6.408;2022-07-05T00:29:30;0.60;;;0.60;;
50002;SDS011;35889;51.442;6.408;2022-07-05T00:31:56;0.50;;;0.50;;
50002;SDS011;35889;51.442;6.408;2022-07-05T00:34:21;0.60;;;0.60;;
50002;SDS011;35889;51.442;6.408;2022-07-05T00:36:47;0.60;;;0.60;;
50002;SDS011;35889;51.442;6.408;2022-07-05T00:39:12;0.60;;;0.60;;
50002;SDS011;35889;51.442;6.408;2022-07-05T00:41:38;0.60;;;0.60;;
50002;SDS011;35889;51.442;6.408;2022-07-05T00:44:05;0.60;;;0.60;;
50002;SDS011;35889;51.442;6.408;2022-07-05T00:46:33;0.60;;;0.60;;
50002;SDS011;35889;51.442;6.408;2022-07-05T00:48:59;0.60;;;0.60;;
50002;SDS011;35889;51.442;6.408;2022-07-05T00:51:25;0.60;;;0.60;;
50002;SDS011;35889;51.442;6.408;2022-07-05T00:53:51;0.60;;;0.60;;
50002;SDS011;35889;51.442;6.408;2022-07-05T00:56:18;0.60;;;0.60;;
50002;SDS011;35889;51.442;6.408;2022-07-05T00:58:44;0.60;;;0.60;;
50002;SDS011;35889;51.442;6.408;2022-07-05T01:01:10;0.60;;;0.60;;
50002;SDS011;35889;51.442;6.408;2022-07-05T01:03:36;0.50;;;0.50;;
50002;SDS011;35889;51.442;6.408;2022-07-05T01:06:02;0.60;;;0.60;;
50002;SDS011;35889;51.442;6.408;2022-07-05T01:08:31;0.60;;;0.60;;
50002;SDS011;35889;51.442;6.408;2022-07-05T01:10:58;0.60;;;0.60;;
50002;SDS011;35889;51.442;6.408;2022-07-05T01:13:24;0.52;;;0.52;;
50002;SDS011;35889;51.442;6.408;2022-07-05T01:15:49;0.70;;;0.70;;
50002;SDS011;35889;51.442;6.408;2022-07-05T01:18:15;0.60;;;0.60;;
50002;SDS011;35889;51.442;6.408;2022-07-05T01:20:41;0.60;;;0.60;;
50002;SDS011;35889;51.442;6.408;2022-07-05T01:23:06;0.60;;;0.60;;
50002;SDS011;35889;51.442;6.408;2022-07-05T01:25:33;0.60;;;0.60;;
50002;SDS011;35889;51.442;6.408;2022-07-05T01:27:58;0.60;;;0.60;;
50002;SDS011;35889;51.442;6.408;2022-07-05T01:30:24;0.60;;;0.60;;
50002;SDS011;35889;51.442;6.408;2022-07-05T01:32:50;0.60;;;0.60;;
50002;SDS011;35889;51.442;6.408;2022-07-05T01:35:16;0.50;;;0.50;;
50002;SDS011;35889;51.442;6.408;2022-07-05T01:37:46;0.60;;;0.60;;
50002;SDS011;35889;51.442;6.408;2022-07-05T01:40:12;0.60;;;0.60;;
50002;SDS011;35889;51.442;6.408;2022-07-05T01:42:38;0.60;;;0.60;;
50002;SDS011;35889;51.442;6.408;2022-07-05T01:45:04;0.60;;;0.60;;
50002;SDS011;35889;51.442;6.408;2022-07-05T01:47:31;0.60;;;0.60;;
50002;SDS011;35889;51.442;6.408;2022-07-05T01:49:57;0.60;;;0.60;;
50002;SDS011;35889;51.442;6.408;2022-07-05T01:52:24;0.60;;;0.60;;
50002;SDS011;35889;51.442;6.408;2022-07-05T01:54:49;0.60;;;0.60;;
50002;SDS011;35889;51.442;6.408;2022-07-05T01:57:16;0.60;;;0.60;;
50002;SDS011;35889;51.442;6.408;2022-07-05T01:59:42;0.60;;;0.60;;
50002;SDS011;35889;51.442;6.408;2022-07-05T02:02:07;0.60;;;0.60;;
50002;SDS011;35889;51.442;6.408;2022-07-05T02:04:33;0.60;;;0.60;;
50002;SDS011;35889;51.442;6.408;2022-07-05T02:09:33;0.50;;;0.50;;
50002;SDS011;35889;51.442;6.408;2022-07-05T02:11:59;0.60;;;0.60;;
50002;SDS011;35889;51.442;6.408;2022-07-05T02:14:25;0.60;;;0.60;;
50002;SDS011;35889;51.442;6.408;2022-07-05T02:16:50;0.60;;;0.60;;
50002;SDS011;35889;51.442;6.408;2022-07-05T02:19:17;0.50;;;0.50;;
50002;SDS011;35889;51.442;6.408;2022-07-05T02:21:43;0.65;;;0.65;;
50002;SDS011;35889;51.442;6.408;2022-07-05T02:24:13;0.60;;;0.60;;
50002;SDS011;35889;51.442;6.408;2022-07-05T02:26:56;0.60;;;0.60;;
50002;SDS011;35889;51.442;6.408;2022-07-05T02:29:22;0.60;;;0.60;;
50002;SDS011;35889;51.442;6.408;2022-07-05T02:31:48;0.60;;;0.60;;
50002;SDS011;35889;51.442;6.408;2022-07-05T02:34:13;0.60;;;0.60;;
50002;SDS011;35889;51.442;6.408;2022-07-05T02:36:39;0.60;;;0.60;;
50002;SDS011;35889;51.442;6.408;2022-07-05T02:39:08;0.60;;;0.60;;
50002;SDS011;35889;51.442;6.408;2022-07-05T02:41:34;0.60;;;0.60;;
50002;SDS011;35889;51.442;6.408;2022-07-05T02:43:59;0.70;;;0.70;;
50002;SDS011;35889;51.442;6.408;2022-07-05T02:46:27;0.65;;;0.65;;
50002;SDS011;35889;51.442;6.408;2022-07-05T02:48:55;0.70;;;0.70;;
50002;SDS011;35889;51.442;6.408;2022-07-05T02:51:21;0.50;;;0.50;;
50002;SDS011;35889;51.442;6.408;2022-07-05T02:53:49;0.60;;;0.60;;
50002;SDS011;35889;51.442;6.408;2022-07-05T02:56:16;0.60;;;0.60;;
50002;SDS011;35889;51.442;6.408;2022-07-05T02:58:41;0.60;;;0.60;;
50002;SDS011;35889;51.442;6.408;2022-07-05T03:01:08;0.60;;;0.60;;
50002;SDS011;35889;51.442;6.408;2022-07-05T03:03:37;0.60;;;0.60;;
50002;SDS011;35889;51.442;6.408;2022-07-05T03:06:02;0.50;;;0.50;;
50002;SDS011;35889;51.442;6.408;2022-07-05T03:08:30;0.60;;;0.60;;
50002;SDS011;35889;51.442;6.408;2022-07-05T03:10:56;0.50;;;0.50;;
50002;SDS011;35889;51.442;6.408;2022-07-05T03:13:22;0.60;;;0.60;;
50002;SDS011;35889;51.442;6.408;2022-07-05T03:15:48;0.60;;;0.60;;
50002;SDS011;35889;51.442;6.408;2022-07-05T03:18:17;0.60;;;0.60;;
50002;SDS011;35889;51.442;6.408;2022-07-05T03:20:42;0.60;;;0.60;;
50002;SDS011;35889;51.442;6.408;2022-07-05T03:23:08;0.70;;;0.70;;
50002;SDS011;35889;51.442;6.408;2022-07-05T03:25:40;0.60;;;0.60;;
50002;SDS011;35889;51.442;6.408;2022-07-05T03:28:07;0.60;;;0.60;;
50002;SDS011;35889;51.442;6.408;2022-07-05T03:30:33;0.60;;;0.60;;
50002;SDS011;35889;51.442;6.408;2022-07-05T03:32:59;0.60;;;0.60;;
50002;SDS011;35889;51.442;6.408;2022-07-05T03:35:26;0.60;;;0.60;;
50002;SDS011;35889;51.442;6.408;2022-07-05T03:37:52;0.57;;;0.57;;
50002;SDS011;35889;51.442;6.408;2022-07-05T03:40:19;0.60;;;0.60;;
50002;SDS011;35889;51.442;6.408;2022-07-05T03:42:45;0.60;;;0.60;;
50002;SDS011;35889;51.442;6.408;2022-07-05T03:45:10;0.60;;;0.60;;
50002;SDS011;35889;51.442;6.408;2022-07-05T03:47:37;0.60;;;0.60;;
50002;SDS011;35889;51.442;6.408;2022-07-05T03:50:04;0.60;;;0.60;;
50002;SDS011;35889;51.442;6.408;2022-07-05T03:52:30;0.60;;;0.60;;
50002;SDS011;35889;51.442;6.408;2022-07-05T03:54:57;0.60;;;0.60;;
50002;SDS011;35889;51.442;6.408;2022-07-05T03:57:23;0.60;;;0.60;;
50002;SDS011;35889;51.442;6.408;2022-07-05T03:59:48;0.60;;;0.60;;
50002;SDS011;35889;51.442;6.408;2022-07-05T04:02:15;0.60;;;0.60;;
50002;SDS011;35889;51.442;6.408;2022-07-05T04:04:41;0.60;;;0.60;;
50002;SDS011;35889;51.442;6.408;2022-07-05T04:07:07;0.60;;;0.60;;
50002;SDS011;35889;51.442;6.408;2022-07-05T04:09:34;0.60;;;0.60;;
50002;SDS011;35889;51.442;6.408;2022-07-05T04:12:00;0.60;;;0.60;;
50002;SDS011;35889;51.442;6.408;2022-07-05T04:14:28;0.60;;;0.60;;
50002;SDS011;35889;51.442;6.408;2022-07-05T04:16:53;0.60;;;0.60;;
50002;SDS011;35889;51.442;6.408;2022-07-05T04:19:19;0.60;;;0.60;;
50002;SDS011;35889;51.442;6.408;2022-07-05T04:21:45;0.60;;;0.60;;
50002;SDS011;35889;51.442;6.408;2022-07-05T04:24:11;0.70;;;0.70;;
50002;SDS011;35889;51.442;6.408;2022-07-05T04:26:36;0.70;;;0.70;;
50002;SDS011;35889;51.442;6.408;2022-07-05T04:29:02;0.60;;;0.60;;
50002;SDS011;35889;51.442;6.408;2022-07-05T04:31:33;0.60;;;0.60;;
50002;SDS011;35889;51.442;6.408;2022-07-05T04:34:00;0.60;;;0.60;;
50002;SDS011;35889;51.442;6.408;2022-07-05T04:36:29;0.60;;;0.60;;
50002;SDS011;35889;51.442;6.408;2022-07-05T04:38:56;0.70;;;0.70;;
50002;SDS011;35889;51.442;6.408;2022-07-05T04:41:23;0.60;;;0.60;;
50002;SDS011;35889;51.442;6.408;2022-07-05T04:43:49;0.65;;;0.65;;
50002;SDS011;35889;51.442;6.408;2022-07-05T04:46:15;0.70;;;0.70;;
50002;SDS011;35889;51.442;6.408;2022-07-05T04:48:42;0.60;;;0.60;;
50002;SDS011;35889;51.442;6.408;2022-07-05T04:51:09;0.70;;;0.70;;
50002;SDS011;35889;51.442;6.408;2022-07-05T04:53:35;0.70;;;0.70;;
50002;SDS011;35889;51.442;6.408;2022-07-05T04:56:00;0.60;;;0.60;;
50002;SDS011;35889;51.442;6.408;2022-07-05T04:58:26;0.60;;;0.60;;
50002;SDS011;35889;51.442;6.408;2022-07-05T05:00:51;0.70;;;0.70;;
50002;SDS011;35889;51.442;6.408;2022-07-05T05:03:17;0.70;;;0.70;;
50002;SDS011;35889;51.442;6.408;2022-07-05T05:05:44;0.70;;;0.70;;
50002;SDS011;35889;51.442;6.408;2022-07-05T05:08:09;0.60;;;0.60;;
50002;SDS011;35889;51.442;6.408;2022-07-05T05:10:35;0.70;;;0.70;;
50002;SDS011;35889;51.442;6.408;2022-07-05T05:13:00;0.60;;;0.60;;
50002;SDS011;35889;51.442;6.408;2022-07-05T05:15:26;0.60;;;0.60;;
50002;SDS011;35889;51.442;6.408;2022-07-05T05:17:51;0.60;;;0.60;;
50002;SDS011;35889;51.442;6.408;2022-07-05T05:20:17;0.70;;;0.70;;
50002;SDS011;35889;51.442;6.408;2022-07-05T05:22:44;0.70;;;0.70;;
50002;SDS011;35889;51.442;6.408;2022-07-05T05:25:10;0.70;;;0.70;;
50002;SDS011;35889;51.442;6.408;2022-07-05T05:27:40;0.70;;;0.70;;
50002;SDS011;35889;51.442;6.408;2022-07-05T05:30:08;0.70;;;0.70;;
50002;SDS011;35889;51.442;6.408;2022-07-05T05:32:34;0.70;;;0.70;;
50002;SDS011;35889;51.442;6.408;2022-07-05T05:35:00;0.60;;;0.60;;
50002;SDS011;35889;51.442;6.408;2022-07-05T05:37:25;0.70;;;0.70;;
50002;SDS011;35889;51.442;6.408;2022-07-05T05:39:50;0.70;;;0.70;;
50002;SDS011;35889;51.442;6.408;2022-07-05T05:42:16;0.60;;;0.60;;
50002;SDS011;35889;51.442;6.408;2022-07-05T05:44:41;0.60;;;0.60;;
50002;SDS011;35889;51.442;6.408;2022-07-05T05:47:07;0.70;;;0.70;;
50002;SDS011;35889;51.442;6.408;2022-07-05T05:49:32;0.70;;;0.70;;
50002;SDS011;35889;51.442;6.408;2022-07-05T05:51:58;0.70;;;0.70;;
50002;SDS011;35889;51.442;6.408;2022-07-05T05:54:23;0.70;;;0.70;;
50002;SDS011;35889;51.442;6.408;2022-07-05T05:56:49;0.60;;;0.60;;
50002;SDS011;35889;51.442;6.408;2022-07-05T05:59:14;0.70;;;0.70;;
50002;SDS011;35889;51.442;6.408;2022-07-05T06:01:40;0.65;;;0.65;;
50002;SDS011;35889;51.442;6.408;2022-07-05T06:04:05;0.60;;;0.60;;
50002;SDS011;35889;51.442;6.408;2022-07-05T06:06:31;0.70;;;0.70;;
50002;SDS011;35889;51.442;6.408;2022-07-05T06:08:56;0.70;;;0.70;;
50002;SDS011;35889;51.442;6.408;2022-07-05T06:11:21;0.70;;;0.70;;
50002;SDS011;35889;51.442;6.408;2022-07-05T06:13:47;0.70;;;0.70;;
50002;SDS011;35889;51.442;6.408;2022-07-05T06:16:12;0.60;;;0.60;;
50002;SDS011;35889;51.442;6.408;2022-07-05T06:18:38;0.70;;;0.70;;
50002;SDS011;35889;51.442;6.408;2022-07-05T06:21:03;0.60;;;0.60;;
50002;SDS011;35889;51.442;6.408;2022-07-05T06:23:29;0.70;;;0.70;;
50002;SDS011;35889;51.442;6.408;2022-07-05T06:25:54;0.70;;;0.70;;
50002;SDS011;35889;51.442;6.408;2022-07-05T06:28:20;0.70;;;0.70;;
50002;SDS011;35889;51.442;6.408;2022-07-05T06:30:45;0.70;;;0.70;;
50002;SDS011;35889;51.442;6.408;2022-07-05T06:33:11;0.70;;;0.70;;
50002;SDS011;35889;51.442;6.408;2022-07-05T06:35:36;0.60;;;0.60;;
50002;SDS011;35889;51.442;6.408;2022-07-05T06:38:03;0.60;;;0.60;;
50002;SDS011;35889;51.442;6.408;2022-07-05T06:40:30;0.63;;;0.63;;
50002;SDS011;35889;51.442;6.408;2022-07-05T06:42:57;0.70;;;0.70;;
50002;SDS011;35889;51.442;6.408;2022-07-05T06:45:38;0.60;;;0.60;;
50002;SDS011;35889;51.442;6.408;2022-07-05T06:48:05;0.70;;;0.70;;
50002;SDS011;35889;51.442;6.408;2022-07-05T06:50:33;0.60;;;0.60;;
50002;SDS011;35889;51.442;6.408;2022-07-05T06:53:02;0.70;;;0.70;;
50002;SDS011;35889;51.442;6.408;2022-07-05T06:55:28;0.70;;;0.70;;
50002;SDS011;35889;51.442;6.408;2022-07-05T06:57:57;0.60;;;0.60;;
50002;SDS011;35889;51.442;6.408;2022-07-05T07:00:24;0.60;;;0.60;;
50002;SDS011;35889;51.442;6.408;2022-07-05T07:02:50;0.60;;;0.60;;
50002;SDS011;35889;51.442;6.408;2022-07-05T07:05:15;0.70;;;0.70;;
50002;SDS011;35889;51.442;6.408;2022-07-05T07:07:41;0.60;;;0.60;;
50002;SDS011;35889;51.442;6.408;2022-07-05T07:10:25;0.60;;;0.60;;
50002;SDS011;35889;51.442;6.408;2022-07-05T07:12:51;0.70;;;0.70;;
50002;SDS011;35889;51.442;6.408;2022-07-05T07:15:16;0.70;;;0.70;;
50002;SDS011;35889;51.442;6.408;2022-07-05T07:17:42;0.60;;;0.60;;
50002;SDS011;35889;51.442;6.408;2022-07-05T07:20:07;0.60;;;0.60;;
50002;SDS011;35889;51.442;6.408;2022-07-05T07:22:33;0.63;;;0.63;;
50002;SDS011;35889;51.442;6.408;2022-07-05T07:24:59;0.60;;;0.60;;
50002;SDS011;35889;51.442;6.408;2022-07-05T07:27:24;0.68;;;0.68;;
50002;SDS011;35889;51.442;6.408;2022-07-05T07:29:49;0.60;;;0.60;;
50002;SDS011;35889;51.442;6.408;2022-07-05T07:32:15;0.70;;;0.70;;
50002;SDS011;35889;51.442;6.408;2022-07-05T07:34:40;0.70;;;0.70;;
50002;SDS011;35889;51.442;6.408;2022-07-05T07:37:06;0.70;;;0.70;;
50002;SDS011;35889;51.442;6.408;2022-07-05T07:39:34;0.68;;;0.68;;
50002;SDS011;35889;51.442;6.408;2022-07-05T07:42:00;0.60;;;0.60;;
50002;SDS011;35889;51.442;6.408;2022-07-05T07:44:25;0.70;;;0.70;;
50002;SDS011;35889;51.442;6.408;2022-07-05T07:46:51;0.70;;;0.70;;
50002;SDS011;35889;51.442;6.408;2022-07-05T07:49:17;0.70;;;0.70;;
50002;SDS011;35889;51.442;6.408;2022-07-05T07:51:42;0.70;;;0.70;;
50002;SDS011;35889;51.442;6.408;2022-07-05T07:54:08;0.70;;;0.70;;
50002;SDS011;35889;51.442;6.408;2022-07-05T07:56:34;0.70;;;0.70;;
50002;SDS011;35889;51.442;6.408;2022-07-05T07:58:59;0.70;;;0.70;;
50002;SDS011;35889;51.442;6.408;2022-07-05T08:01:25;0.70;;;0.70;;
50002;SDS011;35889;51.442;6.408;2022-07-05T08:03:50;0.70;;;0.70;;
50002;SDS011;35889;51.442;6.408;2022-07-05T08:06:16;0.70;;;0.70;;
50002;SDS011;35889;51.442;6.408;2022-07-05T08:08:42;0.70;;;0.70;;
50002;SDS011;35889;51.442;6.408;2022-07-05T08:11:09;0.70;;;0.70;;
50002;SDS011;35889;51.442;6.408;2022-07-05T08:13:35;0.75;;;0.75;;
50002;SDS011;35889;51.442;6.408;2022-07-05T08:16:01;0.70;;;0.70;;
50002;SDS011;35889;51.442;6.408;2022-07-05T08:18:27;0.70;;;0.70;;
50002;SDS011;35889;51.442;6.408;2022-07-05T08:21:11;0.70;;;0.70;;
50002;SDS011;35889;51.442;6.408;2022-07-05T08:23:55;0.70;;;0.70;;
50002;SDS011;35889;51.442;6.408;2022-07-05T08:26:21;0.70;;;0.70;;
50002;SDS011;35889;51.442;6.408;2022-07-05T08:28:47;0.80;;;0.80;;
50002;SDS011;35889;51.442;6.408;2022-07-05T08:31:12;0.75;;;0.75;;
50002;SDS011;35889;51.442;6.408;2022-07-05T08:33:38;0.70;;;0.70;;
50002;SDS011;35889;51.442;6.408;2022-07-05T08:36:03;0.70;;;0.70;;
50002;SDS011;35889;51.442;6.408;2022-07-05T08:38:29;0.70;;;0.70;;
50002;SDS011;35889;51.442;6.408;2022-07-05T08:40:55;0.70;;;0.70;;
50002;SDS011;35889;51.442;6.408;2022-07-05T08:43:24;0.80;;;0.80;;
50002;SDS011;35889;51.442;6.408;2022-07-05T08:45:50;0.60;;;0.60;;
50002;SDS011;35889;51.442;6.408;2022-07-05T08:48:19;0.70;;;0.70;;
50002;SDS011;35889;51.442;6.408;2022-07-05T08:50:45;0.70;;;0.70;;
50002;SDS011;35889;51.442;6.408;2022-07-05T08:53:13;0.70;;;0.70;;
50002;SDS011;35889;51.442;6.408;2022-07-05T08:55:40;0.70;;;0.70;;
50002;SDS011;35889;51.442;6.408;2022-07-05T08:58:05;0.80;;;0.80;;
50002;SDS011;35889;51.442;6.408;2022-07-05T09:00:31;0.80;;;0.80;;
50002;SDS011;35889;51.442;6.408;2022-07-05T09:02:57;0.70;;;0.70;;
50002;SDS011;35889;51.442;6.408;2022-07-05T09:05:22;0.70;;;0.70;;
50002;SDS011;35889;51.442;6.408;2022-07-05T09:07:55;0.70;;;0.70;;
50002;SDS011;35889;51.442;6.408;2022-07-05T09:10:27;0.70;;;0.70;;
50002;SDS011;35889;51.442;6.408;2022-07-05T09:12:54;0.80;;;0.80;;
50002;SDS011;35889;51.442;6.408;2022-07-05T09:15:21;0.70;;;0.70;;
50002;SDS011;35889;51.442;6.408;2022-07-05T09:17:46;0.73;;;0.73;;
50002;SDS011;35889;51.442;6.408;2022-07-05T09:20:13;0.70;;;0.70;;
50002;SDS011;35889;51.442;6.408;2022-07-05T09:25:27;0.80;;;0.80;;
50002;SDS011;35889;51.442;6.408;2022-07-05T09:27:55;0.70;;;0.70;;
50002;SDS011;35889;51.442;6.408;2022-07-05T09:33:03;0.73;;;0.73;;
50002;SDS011;35889;51.442;6.408;2022-07-05T09:35:29;0.70;;;0.70;;
50002;SDS011;35889;51.442;6.408;2022-07-05T09:40:24;0.70;;;0.70;;
50002;SDS011;35889;51.442;6.408;2022-07-05T09:42:49;0.70;;;0.70;;
50002;SDS011;35889;51.442;6.408;2022-07-05T09:45:22;0.70;;;0.70;;
50002;SDS011;35889;51.442;6.408;2022-07-05T09:47:53;0.70;;;0.70;;
50002;SDS011;35889;51.442;6.408;2022-07-05T09:50:35;0.80;;;0.80;;
50002;SDS011;35889;51.442;6.408;2022-07-05T09:53:01;0.70;;;0.70;;
50002;SDS011;35889;51.442;6.408;2022-07-05T09:55:28;0.70;;;0.70;;
50002;SDS011;35889;51.442;6.408;2022-07-05T09:57:53;0.77;;;0.77;;
50002;SDS011;35889;51.442;6.408;2022-07-05T10:00:20;0.60;;;0.60;;
50002;SDS011;35889;51.442;6.408;2022-07-05T10:02:54;0.80;;;0.80;;
50002;SDS011;35889;51.442;6.408;2022-07-05T10:05:26;0.80;;;0.80;;
50002;SDS011;35889;51.442;6.408;2022-07-05T10:07:54;0.60;;;0.60;;
50002;SDS011;35889;51.442;6.408;2022-07-05T10:10:38;0.70;;;0.70;;
50002;SDS011;35889;51.442;6.408;2022-07-05T10:13:04;0.70;;;0.70;;
50002;SDS011;35889;51.442;6.408;2022-07-05T10:15:34;0.70;;;0.70;;
50002;SDS011;35889;51.442;6.408;2022-07-05T10:18:07;0.70;;;0.70;;
50002;SDS011;35889;51.442;6.408;2022-07-05T10:23:05;0.70;;;0.70;;
50002;SDS011;35889;51.442;6.408;2022-07-05T10:25:39;0.70;;;0.70;;
50002;SDS011;35889;51.442;6.408;2022-07-05T10:28:06;0.60;;;0.60;;
50002;SDS011;35889;51.442;6.408;2022-07-05T10:30:32;0.70;;;0.70;;
50002;SDS011;35889;51.442;6.408;2022-07-05T10:32:59;0.70;;;0.70;;
50002;SDS011;35889;51.442;6.408;2022-07-05T10:35:26;0.68;;;0.68;;
50002;SDS011;35889;51.442;6.408;2022-07-05T10:37:52;0.70;;;0.70;;
50002;SDS011;35889;51.442;6.408;2022-07-05T10:40:18;0.70;;;0.70;;
50002;SDS011;35889;51.442;6.408;2022-07-05T10:45:32;0.70;;;0.70;;
50002;SDS011;35889;51.442;6.408;2022-07-05T10:53:15;0.80;;;0.80;;
50002;SDS011;35889;51.442;6.408;2022-07-05T10:55:48;0.70;;;0.70;;
50002;SDS011;35889;51.442;6.408;2022-07-05T11:00:43;0.70;;;0.70;;
50002;SDS011;35889;51.442;6.408;2022-07-05T11:06:02;0.80;;;0.80;;
50002;SDS011;35889;51.442;6.408;2022-07-05T11:08:28;0.70;;;0.70;;
50002;SDS011;35889;51.442;6.408;2022-07-05T11:11:11;0.80;;;0.80;;
50002;SDS011;35889;51.442;6.408;2022-07-05T11:13:41;0.70;;;0.70;;
50002;SDS011;35889;51.442;6.408;2022-07-05T11:18:50;0.80;;;0.80;;
50002;SDS011;35889;51.442;6.408;2022-07-05T11:21:20;0.70;;;0.70;;
50002;SDS011;35889;51.442;6.408;2022-07-05T11:26:12;0.70;;;0.70;;
50002;SDS011;35889;51.442;6.408;2022-07-05T11:28:42;0.70;;;0.70;;
50002;SDS011;35889;51.442;6.408;2022-07-05T11:31:11;0.70;;;0.70;;
50002;SDS011;35889;51.442;6.408;2022-07-05T11:33:40;0.70;;;0.70;;
50002;SDS011;35889;51.442;6.408;2022-07-05T11:36:20;0.80;;;0.80;;
50002;SDS011;35889;51.442;6.408;2022-07-05T11:39:06;0.70;;;0.70;;
50002;SDS011;35889;51.442;6.408;2022-07-05T11:41:36;0.70;;;0.70;;
50002;SDS011;35889;51.442;6.408;2022-07-05T11:44:02;0.73;;;0.73;;
50002;SDS011;35889;51.442;6.408;2022-07-05T11:46:28;0.70;;;0.70;;
50002;SDS011;35889;51.442;6.408;2022-07-05T11:48:54;0.75;;;0.75;;
50002;SDS011;35889;51.442;6.408;2022-07-05T11:51:20;0.70;;;0.70;;
50002;SDS011;35889;51.442;6.408;2022-07-05T11:53:46;0.80;;;0.80;;
50002;SDS011;35889;51.442;6.408;2022-07-05T11:56:11;0.70;;;0.70;;
50002;SDS011;35889;51.442;6.408;2022-07-05T11:58:37;0.80;;;0.80;;
50002;SDS011;35889;51.442;6.408;2022-07-05T12:01:02;0.70;;;0.70;;
50002;SDS011;35889;51.442;6.408;2022-07-05T12:03:28;0.75;;;0.75;;
50002;SDS011;35889;51.442;6.408;2022-07-05T12:05:54;0.80;;;0.80;;
50002;SDS011;35889;51.442;6.408;2022-07-05T12:08:22;0.80;;;0.80;;
50002;SDS011;35889;51.442;6.408;2022-07-05T12:10:49;0.70;;;0.70;;
50002;SDS011;35889;51.442;6.408;2022-07-05T12:13:43;0.80;;;0.80;;
50002;SDS011;35889;51.442;6.408;2022-07-05T12:16:10;0.70;;;0.70;;
50002;SDS011;35889;51.442;6.408;2022-07-05T12:18:49;0.80;;;0.80;;
50002;SDS011;35889;51.442;6.408;2022-07-05T12:21:20;0.70;;;0.70;;
50002;SDS011;35889;51.442;6.408;2022-07-05T12:23:47;0.70;;;0.70;;
50002;SDS011;35889;51.442;6.408;2022-07-05T12:26:14;0.70;;;0.70;;
50002;SDS011;35889;51.442;6.408;2022-07-05T12:28:40;0.75;;;0.75;;
50002;SDS011;35889;51.442;6.408;2022-07-05T12:31:22;0.70;;;0.70;;
50002;SDS011;35889;51.442;6.408;2022-07-05T12:33:50;0.70;;;0.70;;
50002;SDS011;35889;51.442;6.408;2022-07-05T12:36:19;0.80;;;0.80;;
50002;SDS011;35889;51.442;6.408;2022-07-05T12:38:48;0.70;;;0.70;;
50002;SDS011;35889;51.442;6.408;2022-07-05T12:41:22;0.70;;;0.70;;
50002;SDS011;35889;51.442;6.408;2022-07-05T12:43:48;0.70;;;0.70;;
50002;SDS011;35889;51.442;6.408;2022-07-05T12:46:18;0.70;;;0.70;;
50002;SDS011;35889;51.442;6.408;2022-07-05T12:48:44;0.60;;;0.60;;
50002;SDS011;35889;51.442;6.408;2022-07-05T12:51:11;0.70;;;0.70;;
50002;SDS011;35889;51.442;6.408;2022-07-05T12:53:44;0.70;;;0.70;;
50002;SDS011;35889;51.442;6.408;2022-07-05T12:56:51;0.80;;;0.80;;
50002;SDS011;35889;51.442;6.408;2022-07-05T12:59:39;0.70;;;0.70;;
50002;SDS011;35889;51.442;6.408;2022-07-05T13:02:05;0.60;;;0.60;;
50002;SDS011;35889;51.442;6.408;2022-07-05T13:04:31;0.70;;;0.70;;
50002;SDS011;35889;51.442;6.408;2022-07-05T13:07:00;0.70;;;0.70;;
50002;SDS011;35889;51.442;6.408;2022-07-05T13:12:04;0.63;;;0.63;;
50002;SDS011;35889;51.442;6.408;2022-07-05T13:14:45;0.70;;;0.70;;
50002;SDS011;35889;51.442;6.408;2022-07-05T13:17:12;0.60;;;0.60;;
50002;SDS011;35889;51.442;6.408;2022-07-05T13:19:39;0.60;;;0.60;;
50002;SDS011;35889;51.442;6.408;2022-07-05T13:22:05;0.60;;;0.60;;
50002;SDS011;35889;51.442;6.408;2022-07-05T13:24:31;0.70;;;0.70;;
50002;SDS011;35889;51.442;6.408;2022-07-05T13:26:57;0.63;;;0.63;;
50002;SDS011;35889;51.442;6.408;2022-07-05T13:29:22;0.60;;;0.60;;
50002;SDS011;35889;51.442;6.408;2022-07-05T13:31:48;0.70;;;0.70;;
50002;SDS011;35889;51.442;6.408;2022-07-05T13:34:13;0.70;;;0.70;;
50002;SDS011;35889;51.442;6.408;2022-07-05T13:36:39;0.70;;;0.70;;
50002;SDS011;35889;51.442;6.408;2022-07-05T13:39:04;0.70;;;0.70;;
50002;SDS011;35889;51.442;6.408;2022-07-05T13:41:30;0.70;;;0.70;;
50002;SDS011;35889;51.442;6.408;2022-07-05T13:43:57;0.70;;;0.70;;
50002;SDS011;35889;51.442;6.408;2022-07-05T13:46:23;0.80;;;0.80;;
50002;SDS011;35889;51.442;6.408;2022-07-05T13:48:48;1.00;;;1.00;;
50002;SDS011;35889;51.442;6.408;2022-07-05T13:51:13;1.10;;;1.10;;
50002;SDS011;35889;51.442;6.408;2022-07-05T13:53:39;1.10;;;1.10;;
50002;SDS011;35889;51.442;6.408;2022-07-05T13:56:05;1.10;;;1.10;;
50002;SDS011;35889;51.442;6.408;2022-07-05T13:58:30;0.90;;;0.90;;
50002;SDS011;35889;51.442;6.408;2022-07-05T14:00:56;1.10;;;1.10;;
50002;SDS011;35889;51.442;6.408;2022-07-05T14:03:22;1.10;;;1.10;;
50002;SDS011;35889;51.442;6.408;2022-07-05T14:05:47;1.10;;;1.10;;
50002;SDS011;35889;51.442;6.408;2022-07-05T14:08:14;1.00;;;1.00;;
50002;SDS011;35889;51.442;6.408;2022-07-05T14:10:46;1.00;;;1.00;;
50002;SDS011;35889;51.442;6.408;2022-07-05T14:13:19;1.00;;;1.00;;
50002;SDS011;35889;51.442;6.408;2022-07-05T14:15:45;1.10;;;1.10;;
50002;SDS011;35889;51.442;6.408;2022-07-05T14:18:12;1.10;;;1.10;;
50002;SDS011;35889;51.442;6.408;2022-07-05T14:20:38;0.80;;;0.80;;
50002;SDS011;35889;51.442;6.408;2022-07-05T14:23:03;0.70;;;0.70;;
50002;SDS011;35889;51.442;6.408;2022-07-05T14:25:29;0.70;;;0.70;;
50002;SDS011;35889;51.442;6.408;2022-07-05T14:27:54;0.70;;;0.70;;
50002;SDS011;35889;51.442;6.408;2022-07-05T14:30:20;0.70;;;0.70;;
50002;SDS011;35889;51.442;6.408;2022-07-05T14:32:48;0.60;;;0.60;;
50002;SDS011;35889;51.442;6.408;2022-07-05T14:35:14;0.70;;;0.70;;
50002;SDS011;35889;51.442;6.408;2022-07-05T14:37:39;0.70;;;0.70;;
50002;SDS011;35889;51.442;6.408;2022-07-05T14:40:05;0.63;;;0.63;;
50002;SDS011;35889;51.442;6.408;2022-07-05T14:42:31;0.70;;;0.70;;
50002;SDS011;35889;51.442;6.408;2022-07-05T14:44:57;0.80;;;0.80;;
50002;SDS011;35889;51.442;6.408;2022-07-05T14:47:22;0.70;;;0.70;;
50002;SDS011;35889;51.442;6.408;2022-07-05T14:49:52;0.73;;;0.73;;
50002;SDS011;35889;51.442;6.408;2022-07-05T14:52:18;0.70;;;0.70;;
50002;SDS011;35889;51.442;6.408;2022-07-05T14:54:44;0.65;;;0.65;;
50002;SDS011;35889;51.442;6.408;2022-07-05T14:57:10;0.70;;;0.70;;
50002;SDS011;35889;51.442;6.408;2022-07-05T14:59:35;0.70;;;0.70;;
50002;SDS011;35889;51.442;6.408;2022-07-05T15:02:00;0.70;;;0.70;;
50002;SDS011;35889;51.442;6.408;2022-07-05T15:04:26;0.80;;;0.80;;
50002;SDS011;35889;51.442;6.408;2022-07-05T15:06:52;0.80;;;0.80;;
50002;SDS011;35889;51.442;6.408;2022-07-05T15:09:18;0.80;;;0.80;;
50002;SDS011;35889;51.442;6.408;2022-07-05T15:11:43;0.70;;;0.70;;
50002;SDS011;35889;51.442;6.408;2022-07-05T15:14:09;0.70;;;0.70;;
50002;SDS011;35889;51.442;6.408;2022-07-05T15:16:34;0.70;;;0.70;;
50002;SDS011;35889;51.442;6.408;2022-07-05T15:19:01;0.70;;;0.70;;
50002;SDS011;35889;51.442;6.408;2022-07-05T15:21:27;0.70;;;0.70;;